createdAt,value
2019-03-26T00:00:58.233Z,98319.08
2019-03-26T00:03:28.407Z,98318.56
2019-03-26T00:05:58.631Z,98202.94
2019-03-26T00:08:28.862Z,98318.95
2019-03-26T00:10:59.038Z,98317.50
2019-03-26T00:13:29.235Z,98324.23
2019-03-26T00:15:59.427Z,98327.37
2019-03-26T00:18:29.563Z,98321.75
2019-03-26T00:20:59.706Z,98320.20
2019-03-26T00:23:29.942Z,98326.73
2019-03-26T00:26:00.093Z,98329.61
2019-03-26T00:28:30.239Z,98332.79
2019-03-26T00:31:00.438Z,98334.15
2019-03-26T00:33:36.327Z,98331.41
2019-03-26T00:36:02.493Z,98340.04
2019-03-26T00:38:32.686Z,98336.72
2019-03-26T00:41:02.895Z,98337.50
2019-03-26T00:43:33.126Z,98338.33
2019-03-26T00:46:03.283Z,98342.99
2019-03-26T00:48:33.467Z,98341.61
2019-03-26T00:51:03.666Z,98338.32
2019-03-26T00:53:33.880Z,98338.22
2019-03-26T00:56:04.028Z,98334.06
2019-03-26T00:58:34.270Z,98331.56
2019-03-26T01:01:04.413Z,98328.73
2019-03-26T01:03:34.614Z,98323.31
2019-03-26T01:06:04.810Z,98327.11
2019-03-26T01:08:34.971Z,98330.03
2019-03-26T01:11:05.130Z,98327.53
2019-03-26T01:13:35.292Z,98324.66
2019-03-26T01:16:05.592Z,98330.50
2019-03-26T01:18:35.678Z,98329.42
2019-03-26T01:21:05.879Z,98313.24
2019-03-26T01:23:36.083Z,98319.78
2019-03-26T01:26:06.375Z,98323.63
2019-03-26T01:28:36.568Z,98328.95
2019-03-26T01:31:06.761Z,98333.90
2019-03-26T01:33:37.023Z,98335.42
2019-03-26T01:36:07.258Z,98330.30
2019-03-26T01:38:37.433Z,98335.20
2019-03-26T01:41:07.682Z,98339.60
2019-03-26T01:43:37.870Z,98334.27
2019-03-26T01:46:07.994Z,98335.58
2019-03-26T01:48:38.237Z,98339.17
2019-03-26T01:51:08.393Z,98352.55
2019-03-26T01:53:38.536Z,98351.53
2019-03-26T01:56:08.746Z,98353.06
2019-03-26T01:58:38.921Z,98358.94
2019-03-26T02:01:09.109Z,98355.38
2019-03-26T02:03:39.285Z,98356.02
2019-03-26T02:06:09.479Z,98353.78
2019-03-26T02:08:39.664Z,98355.04
2019-03-26T02:11:09.884Z,98355.37
2019-03-26T02:13:40.016Z,98357.67
2019-03-26T02:16:10.226Z,98359.02
2019-03-26T02:18:40.419Z,98362.66
2019-03-26T02:21:11.467Z,98361.58
2019-03-26T02:23:41.616Z,98365.75
2019-03-26T02:26:11.808Z,98364.69
2019-03-26T02:28:41.965Z,98365.13
2019-03-26T02:31:12.246Z,98369.16
2019-03-26T02:33:42.468Z,98364.13
2019-03-26T02:36:12.604Z,98365.78
2019-03-26T02:38:42.811Z,98368.48
2019-03-26T02:41:12.977Z,98365.65
2019-03-26T02:43:43.223Z,98373.08
2019-03-26T02:46:13.378Z,98371.53
2019-03-26T02:48:43.560Z,98359.92
2019-03-26T02:51:13.770Z,98359.12
2019-03-26T02:53:43.965Z,98365.16
2019-03-26T02:56:14.157Z,98368.36
2019-03-26T02:58:44.366Z,98370.76
2019-03-26T03:01:14.512Z,98366.34
2019-03-26T03:03:44.703Z,98375.78
2019-03-26T03:06:14.863Z,98378.19
2019-03-26T03:08:45.075Z,98369.03
2019-03-26T03:11:15.223Z,98370.80
2019-03-26T03:13:45.399Z,98379.19
2019-03-26T03:16:15.578Z,98374.60
2019-03-26T03:18:45.769Z,98379.31
2019-03-26T03:21:15.984Z,98377.51
2019-03-26T03:23:46.159Z,98380.02
2019-03-26T03:26:16.310Z,98379.70
2019-03-26T03:28:46.516Z,98384.59
2019-03-26T03:31:16.680Z,98389.75
2019-03-26T03:33:46.793Z,98386.80
2019-03-26T03:36:17.043Z,98388.14
2019-03-26T03:38:47.285Z,98388.66
2019-03-26T03:41:17.490Z,98398.13
2019-03-26T03:43:47.657Z,98394.53
2019-03-26T03:46:17.974Z,98394.50
2019-03-26T03:48:49.413Z,98397.31
2019-03-26T03:51:22.674Z,98404.87
2019-03-26T03:53:52.914Z,98405.47
2019-03-26T03:56:25.835Z,98406.28
2019-03-26T03:58:57.457Z,98399.77
2019-03-26T04:01:27.667Z,98404.11
2019-03-26T04:03:57.911Z,98406.55
2019-03-26T04:06:28.061Z,98403.03
2019-03-26T04:08:58.247Z,98410.39
2019-03-26T04:11:28.496Z,98415.09
2019-03-26T04:13:58.659Z,98424.61
2019-03-26T04:16:28.813Z,98432.89
2019-03-26T04:18:59.044Z,98430.29
2019-03-26T04:21:29.336Z,98434.31
2019-03-26T04:23:59.546Z,98440.80
2019-03-26T04:26:29.731Z,98442.75
2019-03-26T04:28:59.958Z,98455.56
2019-03-26T04:31:30.109Z,98456.00
2019-03-26T04:34:00.293Z,98457.55
2019-03-26T04:36:30.533Z,98461.05
2019-03-26T04:39:00.744Z,98464.64
2019-03-26T04:41:30.944Z,98467.28
2019-03-26T04:44:01.188Z,98472.91
2019-03-26T04:46:31.428Z,98472.74
2019-03-26T04:49:01.599Z,98478.56
2019-03-26T04:51:31.978Z,98468.67
2019-03-26T04:54:02.309Z,98472.91
2019-03-26T04:56:32.513Z,98474.06
2019-03-26T04:59:02.816Z,98469.78
2019-03-26T05:01:33.034Z,98470.43
2019-03-26T05:04:03.216Z,98469.42
2019-03-26T05:06:38.133Z,98473.84
2019-03-26T05:09:06.177Z,98478.52
2019-03-26T05:11:37.503Z,98477.43
2019-03-26T05:14:07.633Z,98475.23
2019-03-26T05:16:37.923Z,98484.00
2019-03-26T05:19:08.044Z,98480.42
2019-03-26T05:21:38.271Z,98482.83
2019-03-26T05:24:08.539Z,98476.64
2019-03-26T05:26:38.831Z,98480.72
2019-03-26T05:29:09.024Z,98329.75
2019-03-26T05:31:39.330Z,98484.58
2019-03-26T05:34:09.535Z,98483.63
2019-03-26T05:36:50.818Z,98493.28
2019-03-26T05:39:11.617Z,98494.47
2019-03-26T05:41:41.874Z,98498.18
2019-03-26T05:44:12.032Z,98494.21
2019-03-26T05:46:42.178Z,98503.58
2019-03-26T05:49:12.345Z,98498.20
2019-03-26T05:51:42.578Z,98505.67
2019-03-26T05:54:12.730Z,98474.64
2019-03-26T05:56:42.895Z,98518.25
2019-03-26T05:59:13.120Z,98517.68
2019-03-26T06:01:43.411Z,98529.34
2019-03-26T06:04:13.570Z,98521.46
2019-03-26T06:06:43.767Z,98534.13
2019-03-26T06:09:14.016Z,98529.81
2019-03-26T06:11:44.225Z,98533.39
2019-03-26T06:14:14.371Z,98535.10
2019-03-26T06:16:44.541Z,98535.42
2019-03-26T06:19:14.720Z,98542.16
2019-03-26T06:21:44.917Z,98542.28
2019-03-26T06:24:15.049Z,98546.69
2019-03-26T06:26:45.353Z,98538.97
2019-03-26T06:29:15.518Z,98540.27
2019-03-26T06:31:45.664Z,98541.42
2019-03-26T06:34:15.862Z,98546.91
2019-03-26T06:36:46.118Z,98548.88
2019-03-26T06:39:16.301Z,98549.41
2019-03-26T06:41:46.526Z,98554.17
2019-03-26T06:44:16.675Z,98547.70
2019-03-26T06:46:46.850Z,98548.96
2019-03-26T06:49:16.987Z,98552.28
2019-03-26T06:51:47.221Z,98555.47
2019-03-26T06:54:17.364Z,98552.06
2019-03-26T06:56:47.502Z,98552.53
2019-03-26T06:59:17.695Z,98551.58
2019-03-26T07:01:47.847Z,98555.72
2019-03-26T07:04:18.014Z,98557.20
2019-03-26T07:06:48.164Z,98555.00
2019-03-26T07:09:18.380Z,98552.53
2019-03-26T07:11:48.585Z,98564.34
2019-03-26T07:14:18.709Z,98550.75
2019-03-26T07:16:48.846Z,98556.45
2019-03-26T07:19:19.051Z,98552.72
2019-03-26T07:21:50.093Z,98558.61
2019-03-26T07:24:20.315Z,98556.97
2019-03-26T07:26:50.450Z,98557.50
2019-03-26T07:29:20.629Z,98560.69
2019-03-26T07:31:50.854Z,98558.33
2019-03-26T07:34:21.096Z,98558.23
2019-03-26T07:36:51.272Z,98551.96
2019-03-26T07:39:21.429Z,98557.70
2019-03-26T07:41:51.640Z,98556.25
2019-03-26T07:44:21.772Z,98556.59
2019-03-26T07:46:51.956Z,98566.89
2019-03-26T07:49:22.092Z,98560.28
2019-03-26T07:51:52.404Z,98563.52
2019-03-26T07:54:22.588Z,98557.88
2019-03-26T07:56:52.753Z,98561.04
2019-03-26T07:59:22.900Z,98554.77
2019-03-26T08:01:53.038Z,98555.79
2019-03-26T08:04:23.275Z,98564.91
2019-03-26T08:06:53.421Z,98570.17
2019-03-26T08:09:23.629Z,98560.42
2019-03-26T08:11:53.947Z,98568.09
2019-03-26T08:14:24.135Z,98563.86
2019-03-26T08:16:54.291Z,98571.19
2019-03-26T08:19:24.451Z,98565.38
2019-03-26T08:21:54.620Z,98566.32
2019-03-26T08:24:24.803Z,98571.20
2019-03-26T08:26:54.962Z,98566.61
2019-03-26T08:29:25.110Z,98561.37
2019-03-26T08:31:55.308Z,98566.84
2019-03-26T08:34:25.528Z,98565.63
2019-03-26T08:36:55.720Z,98570.22
2019-03-26T08:39:25.860Z,98571.48
2019-03-26T08:41:56.036Z,98570.47
2019-03-26T08:44:26.268Z,98573.00
2019-03-26T08:46:56.439Z,98571.36
2019-03-26T08:49:30.614Z,98568.62
2019-03-26T08:51:58.606Z,98575.09
2019-03-26T08:54:28.759Z,98570.28
2019-03-26T08:56:59.272Z,98570.08
2019-03-26T08:59:29.391Z,98569.33
2019-03-26T09:01:59.612Z,98573.18
2019-03-26T09:04:29.810Z,98564.97
2019-03-26T09:07:00.018Z,98576.91
2019-03-26T09:09:30.444Z,98577.42
2019-03-26T09:12:00.642Z,98571.38
2019-03-26T09:14:30.880Z,98575.95
2019-03-26T09:17:01.051Z,98569.29
2019-03-26T09:19:31.303Z,98569.30
2019-03-26T09:22:01.510Z,98568.18
2019-03-26T09:24:31.734Z,98578.64
2019-03-26T09:27:01.909Z,98567.87
2019-03-26T09:29:32.141Z,98567.80
2019-03-26T09:32:02.288Z,98575.28
2019-03-26T09:34:32.438Z,98565.45
2019-03-26T09:37:02.656Z,98572.53
2019-03-26T09:39:32.786Z,98570.53
2019-03-26T09:42:03.041Z,98566.48
2019-03-26T09:44:33.300Z,98563.92
2019-03-26T09:47:15.497Z,98567.16
2019-03-26T09:49:35.447Z,98572.88
2019-03-26T09:52:05.794Z,98566.34
2019-03-26T09:54:35.987Z,98568.46
2019-03-26T09:57:06.202Z,98563.65
2019-03-26T09:59:36.468Z,98562.13
2019-03-26T10:02:06.757Z,98566.84
2019-03-26T10:04:36.949Z,98561.05
2019-03-26T10:07:20.586Z,98566.25
2019-03-26T10:09:39.167Z,98561.94
2019-03-26T10:12:09.386Z,98564.47
2019-03-26T10:14:39.591Z,98552.67
2019-03-26T10:17:09.776Z,98555.41
2019-03-26T10:19:40.018Z,98556.20
2019-03-26T10:22:10.417Z,98561.36
2019-03-26T10:24:40.576Z,98556.64
2019-03-26T10:27:10.904Z,98554.75
2019-03-26T10:29:41.073Z,98564.99
2019-03-26T10:32:11.247Z,98561.77
2019-03-26T10:34:41.434Z,98556.20
2019-03-26T10:37:11.670Z,98555.66
2019-03-26T10:39:41.889Z,98559.06
2019-03-26T10:42:12.079Z,98557.39
2019-03-26T10:44:42.327Z,98555.30
2019-03-26T10:47:12.484Z,98567.95
2019-03-26T10:49:42.694Z,98567.81
2019-03-26T10:52:12.858Z,98566.22
2019-03-26T10:54:42.994Z,98563.31
2019-03-26T10:57:13.138Z,98569.39
2019-03-26T10:59:43.254Z,98568.39
2019-03-26T11:02:13.455Z,98565.77
2019-03-26T11:04:43.606Z,98566.55
2019-03-26T11:07:13.757Z,98561.83
2019-03-26T11:09:44.065Z,98559.61
2019-03-26T11:12:14.237Z,98552.32
2019-03-26T11:14:44.376Z,98551.47
2019-03-26T11:17:14.571Z,98555.32
2019-03-26T11:19:46.405Z,98545.16
2019-03-26T11:22:16.851Z,98547.13
2019-03-26T11:24:46.995Z,98543.44
2019-03-26T11:27:17.196Z,98550.85
2019-03-26T11:29:47.611Z,98547.95
2019-03-26T11:32:17.764Z,98548.09
2019-03-26T11:37:11.454Z,98544.20
2019-03-26T11:39:41.573Z,98538.09
2019-03-26T11:42:11.737Z,98533.39
2019-03-26T11:44:41.889Z,98540.22
2019-03-26T11:47:12.021Z,98534.02
2019-03-26T11:49:42.202Z,98534.20
2019-03-26T11:52:12.364Z,98532.39
2019-03-26T11:54:42.550Z,98533.47
2019-03-26T11:57:12.713Z,98544.51
2019-03-26T11:59:42.855Z,98536.00
2019-03-26T12:02:13.200Z,98549.73
2019-03-26T12:04:43.299Z,98548.20
2019-03-26T12:07:13.547Z,98548.60
2019-03-26T12:09:46.474Z,98558.28
2019-03-26T12:12:15.566Z,98557.70
2019-03-26T12:14:45.753Z,98559.86
2019-03-26T12:17:15.873Z,98572.86
2019-03-26T12:19:46.037Z,98569.75
2019-03-26T12:22:16.228Z,98571.59
2019-03-26T12:24:46.334Z,98575.86
2019-03-26T12:27:16.513Z,98588.15
2019-03-26T12:29:46.728Z,98580.94
2019-03-26T12:32:16.847Z,98589.27
2019-03-26T12:34:47.045Z,98579.89
2019-03-26T12:37:17.208Z,98590.14
2019-03-26T12:39:58.949Z,98588.89
2019-03-26T12:42:19.334Z,98593.94
2019-03-26T12:44:49.461Z,98603.35
2019-03-26T12:47:19.670Z,98601.44
2019-03-26T12:49:49.802Z,98598.47
2019-03-26T12:52:19.994Z,98600.94
2019-03-26T12:54:50.158Z,98599.42
2019-03-26T12:57:20.281Z,98606.61
2019-03-26T12:59:50.408Z,98609.03
2019-03-26T13:02:20.578Z,98615.60
2019-03-26T13:04:50.735Z,98608.27
2019-03-26T13:07:20.977Z,98615.92
2019-03-26T13:09:51.192Z,98617.89
2019-03-26T13:12:21.365Z,98623.40
2019-03-26T13:14:51.620Z,98623.86
2019-03-26T13:17:21.758Z,98630.54
2019-03-26T13:19:51.957Z,98637.25
2019-03-26T13:22:22.117Z,98629.67
2019-03-26T13:24:52.266Z,98633.72
2019-03-26T13:27:22.438Z,98639.11
2019-03-26T13:29:52.565Z,98634.26
2019-03-26T13:32:22.751Z,98648.59
2019-03-26T13:34:52.880Z,98652.54
2019-03-26T13:37:23.093Z,98656.71
2019-03-26T13:39:53.297Z,98666.44
2019-03-26T13:42:23.429Z,98666.14
2019-03-26T13:44:53.563Z,98668.94
2019-03-26T13:47:23.781Z,98675.92
2019-03-26T13:49:53.916Z,98677.22
2019-03-26T13:52:24.052Z,98673.75
2019-03-26T13:54:54.243Z,98677.53
2019-03-26T13:57:24.416Z,98687.91
2019-03-26T13:59:54.647Z,98704.70
2019-03-26T14:02:24.772Z,98707.63
2019-03-26T14:04:54.941Z,98715.47
2019-03-26T14:07:25.095Z,98725.10
2019-03-26T14:09:55.242Z,98717.77
2019-03-26T14:12:25.400Z,98718.91
2019-03-26T14:14:55.652Z,98719.69
2019-03-26T14:17:25.786Z,98721.34
2019-03-26T14:19:56.051Z,98736.27
2019-03-26T14:22:26.177Z,98738.34
2019-03-26T14:24:56.367Z,98743.65
2019-03-26T14:27:26.490Z,98743.30
2019-03-26T14:29:56.668Z,98758.78
2019-03-26T14:32:26.807Z,98755.62
2019-03-26T14:34:57.579Z,98756.72
2019-03-26T14:37:27.757Z,98748.53
2019-03-26T14:39:58.044Z,98762.13
2019-03-26T14:42:28.226Z,98759.41
2019-03-26T14:44:58.394Z,98758.67
2019-03-26T14:47:28.547Z,98752.30
2019-03-26T14:49:58.706Z,98751.87
2019-03-26T14:52:28.877Z,98764.79
2019-03-26T14:54:59.022Z,98769.28
2019-03-26T14:57:29.422Z,98773.94
2019-03-26T14:59:59.639Z,98776.00
2019-03-26T15:02:29.943Z,98786.12
2019-03-26T15:05:00.335Z,98785.16
2019-03-26T15:07:30.558Z,98788.45
2019-03-26T15:10:00.766Z,98792.28
2019-03-26T15:12:30.929Z,98801.20
2019-03-26T15:15:01.080Z,98809.91
2019-03-26T15:17:31.208Z,98809.94
2019-03-26T15:20:01.308Z,98812.00
2019-03-26T15:22:31.538Z,98820.02
2019-03-26T15:25:01.727Z,98821.91
2019-03-26T15:27:31.892Z,98820.56
2019-03-26T15:30:02.073Z,98830.16
2019-03-26T15:32:32.241Z,98835.80
2019-03-26T15:35:02.444Z,98833.17
2019-03-26T15:37:32.604Z,98849.41
2019-03-26T15:40:02.818Z,98845.73
2019-03-26T15:42:33.133Z,98850.22
2019-03-26T15:45:03.320Z,98853.02
2019-03-26T15:47:33.450Z,98859.95
2019-03-26T15:50:03.714Z,98864.19
2019-03-26T15:52:33.894Z,98868.55
2019-03-26T15:55:04.213Z,98867.91
2019-03-26T15:57:34.536Z,98871.41
2019-03-26T16:00:05.619Z,98877.17
2019-03-26T16:02:35.777Z,98891.68
2019-03-26T16:05:06.880Z,98884.34
2019-03-26T16:07:37.090Z,98891.73
2019-03-26T16:10:08.220Z,98901.86
2019-03-26T16:12:41.202Z,98900.94
2019-03-26T16:15:10.579Z,98897.77
2019-03-26T16:17:40.725Z,98905.57
2019-03-26T16:20:11.064Z,98923.02
2019-03-26T16:22:41.286Z,98927.15
2019-03-26T16:25:11.723Z,98934.61
2019-03-26T16:27:41.869Z,98946.69
2019-03-26T16:30:12.783Z,98957.23
2019-03-26T16:32:43.007Z,98964.39
2019-03-26T16:35:13.251Z,98963.22
2019-03-26T16:37:43.499Z,98970.33
2019-03-26T16:40:13.797Z,98977.52
2019-03-26T16:42:43.960Z,98984.30
2019-03-26T16:45:14.292Z,98984.05
2019-03-26T16:47:44.500Z,98997.86
2019-03-26T16:50:14.867Z,98996.88
2019-03-26T16:52:45.072Z,98996.14
2019-03-26T16:55:15.407Z,99005.80
2019-03-26T16:57:45.694Z,99008.38
2019-03-26T17:00:17.405Z,99022.72
2019-03-26T17:02:47.549Z,99013.38
2019-03-26T17:05:22.238Z,99017.55
2019-03-26T17:07:52.423Z,99029.94
2019-03-26T17:10:22.619Z,99037.03
2019-03-26T17:12:52.823Z,99031.20
2019-03-26T17:15:23.100Z,99041.70
2019-03-26T17:17:53.302Z,99055.75
2019-03-26T17:20:24.146Z,99045.47
2019-03-26T17:22:56.701Z,99056.14
2019-03-26T17:25:27.353Z,99059.17
2019-03-26T17:27:57.553Z,99054.31
2019-03-26T17:30:27.833Z,99063.16
2019-03-26T17:32:58.050Z,99071.48
2019-03-26T17:35:28.314Z,99072.86
2019-03-26T17:38:00.121Z,99073.51
2019-03-26T17:40:30.471Z,99073.25
2019-03-26T17:43:00.661Z,99078.02
2019-03-26T17:45:31.079Z,99065.97
2019-03-26T17:48:01.245Z,99067.50
2019-03-26T17:50:31.453Z,99079.41
2019-03-26T17:53:01.812Z,99070.95
2019-03-26T17:55:31.992Z,99078.92
2019-03-26T17:58:02.158Z,99082.75
2019-03-26T18:00:42.857Z,99082.61
2019-03-26T18:03:25.786Z,99090.49
2019-03-26T18:05:45.040Z,99081.92
2019-03-26T18:08:15.238Z,99086.02
2019-03-26T18:10:45.443Z,99079.77
2019-03-26T18:13:15.712Z,99090.28
2019-03-26T18:15:45.871Z,99091.98
2019-03-26T18:18:16.020Z,99089.23
2019-03-26T18:20:46.277Z,99098.83
2019-03-26T18:23:16.489Z,99101.45
2019-03-26T18:25:46.740Z,99104.80
2019-03-26T18:28:16.922Z,99097.95
2019-03-26T18:30:47.142Z,99085.03
2019-03-26T18:33:17.272Z,99102.03
2019-03-26T18:35:47.457Z,99091.54
2019-03-26T18:38:17.695Z,99067.01
2019-03-26T18:40:47.905Z,99107.39
2019-03-26T18:43:18.110Z,99107.20
2019-03-26T18:45:48.322Z,99106.23
2019-03-26T18:48:18.600Z,99121.23
2019-03-26T18:50:48.786Z,99123.75
2019-03-26T18:53:18.964Z,99127.09
2019-03-26T18:55:49.225Z,99123.38
2019-03-26T18:58:19.367Z,99122.55
2019-03-26T19:00:49.574Z,99129.06
2019-03-26T19:03:19.872Z,99132.42
2019-03-26T19:05:50.178Z,99131.16
2019-03-26T19:08:20.503Z,99133.81
2019-03-26T19:10:50.688Z,99132.78
2019-03-26T19:13:20.898Z,99137.48
2019-03-26T19:15:51.125Z,99135.30
2019-03-26T19:18:21.348Z,99136.40
2019-03-26T19:21:01.269Z,99141.52
2019-03-26T19:23:23.662Z,99137.19
2019-03-26T19:25:53.852Z,99140.67
2019-03-26T19:28:24.153Z,99136.59
2019-03-26T19:30:54.361Z,99147.28
2019-03-26T19:33:24.581Z,99140.16
2019-03-26T19:35:54.762Z,99151.95
2019-03-26T19:38:24.934Z,99143.31
2019-03-26T19:40:55.064Z,99150.78
2019-03-26T19:43:25.309Z,99156.23
2019-03-26T19:45:55.484Z,99150.33
2019-03-26T19:48:25.655Z,99154.30
2019-03-26T19:50:55.932Z,99157.43
2019-03-26T19:53:26.145Z,99156.70
2019-03-26T19:55:56.390Z,99155.07
2019-03-26T19:58:26.614Z,99153.03
2019-03-26T20:00:56.817Z,99154.91
2019-03-26T20:03:26.921Z,99161.08
2019-03-26T20:05:57.151Z,99159.08
2019-03-26T20:08:27.411Z,99164.08
2019-03-26T20:10:57.739Z,99157.28
2019-03-26T20:13:28.007Z,99159.29
2019-03-26T20:15:58.297Z,99161.95
2019-03-26T20:18:28.486Z,99103.45
2019-03-26T20:20:58.926Z,99161.16
2019-03-26T20:23:29.140Z,99162.89
2019-03-26T20:25:59.361Z,99169.09
2019-03-26T20:28:29.479Z,99173.32
2019-03-26T20:30:59.643Z,99170.11
2019-03-26T20:33:29.828Z,99178.36
2019-03-26T20:36:00.025Z,99169.48
2019-03-26T20:38:30.258Z,99176.19
2019-03-26T20:41:00.540Z,99174.44
2019-03-26T20:43:37.126Z,99168.36
2019-03-26T20:46:02.752Z,99174.28
2019-03-26T20:48:33.064Z,99174.66
2019-03-26T20:51:03.238Z,99170.19
2019-03-26T20:53:33.518Z,99180.63
2019-03-26T20:56:03.903Z,99182.43
2019-03-26T20:58:34.341Z,99185.02
2019-03-26T21:01:04.622Z,99187.41
2019-03-26T21:03:34.809Z,99192.02
2019-03-26T21:06:05.076Z,99189.61
2019-03-26T21:08:35.412Z,99189.05
2019-03-26T21:11:05.571Z,99197.66
2019-03-26T21:13:35.736Z,99195.92
2019-03-26T21:16:05.892Z,99194.59
2019-03-26T21:18:36.127Z,99198.78
2019-03-26T21:21:06.317Z,99192.35
2019-03-26T21:23:36.582Z,99201.19
2019-03-26T21:26:06.937Z,99193.81
2019-03-26T21:28:37.196Z,99188.51
2019-03-26T21:31:07.371Z,99196.80
2019-03-26T21:33:37.649Z,99196.70
2019-03-26T21:36:07.850Z,99197.44
2019-03-26T21:38:38.080Z,99197.49
2019-03-26T21:41:08.311Z,99207.25
2019-03-26T21:43:38.506Z,99198.52
2019-03-26T21:46:08.771Z,99198.84
2019-03-26T21:48:38.956Z,99198.84
2019-03-26T21:51:09.118Z,99200.30
2019-03-26T21:53:39.359Z,99201.70
2019-03-26T21:56:09.602Z,99195.87
2019-03-26T21:58:39.763Z,99194.53
2019-03-26T22:01:09.928Z,99199.48
2019-03-26T22:03:40.182Z,99199.72
2019-03-26T22:06:10.438Z,99202.73
2019-03-26T22:08:40.783Z,99203.50
2019-03-26T22:11:10.985Z,99210.38
2019-03-26T22:13:41.253Z,99223.46
2019-03-26T22:16:11.552Z,99225.48
2019-03-26T22:18:41.772Z,99222.57
2019-03-26T22:21:12.058Z,99225.42
2019-03-26T22:23:42.356Z,99225.95
2019-03-26T22:26:12.539Z,99229.50
2019-03-26T22:28:42.849Z,99230.52
2019-03-26T22:31:13.095Z,99236.55
2019-03-26T22:33:43.327Z,99239.28
2019-03-26T22:36:13.574Z,99246.30
2019-03-26T22:38:43.832Z,99254.20
2019-03-26T22:41:13.986Z,99257.40
2019-03-26T22:43:44.236Z,99257.68
2019-03-26T22:46:14.387Z,99250.71
2019-03-26T22:48:44.668Z,99263.31
2019-03-26T22:51:14.851Z,99262.33
2019-03-26T22:53:45.071Z,99267.02
2019-03-26T22:56:15.222Z,99271.80
2019-03-26T22:58:45.417Z,99270.27
2019-03-26T23:01:15.727Z,99265.09
2019-03-26T23:03:46.137Z,99275.10
2019-03-26T23:06:16.499Z,99270.06
2019-03-26T23:08:46.765Z,99276.20
2019-03-26T23:11:17.027Z,99278.56
2019-03-26T23:13:47.363Z,99277.61
2019-03-26T23:16:17.649Z,99278.02
2019-03-26T23:18:47.841Z,99280.20
2019-03-26T23:21:19.924Z,99278.52
2019-03-26T23:23:49.884Z,99283.13
2019-03-26T23:26:20.127Z,99284.75
2019-03-26T23:28:50.271Z,99286.25
2019-03-26T23:31:20.460Z,99289.42
2019-03-26T23:33:50.683Z,99290.34
2019-03-26T23:36:20.999Z,99293.62
2019-03-26T23:38:51.225Z,99294.28
2019-03-26T23:41:21.391Z,99301.77
2019-03-26T23:43:51.704Z,99299.45
2019-03-26T23:46:21.995Z,99305.02
2019-03-26T23:48:52.221Z,99305.52
2019-03-26T23:51:22.544Z,99306.55
2019-03-26T23:53:52.786Z,99300.91
2019-03-26T23:56:22.957Z,99312.69
2019-03-26T23:58:53.123Z,99300.97
